Time;durP1;ratioP1;P1;durP2;ratioP2;P2;SDS_P1;SDS_P2;PMS_P1;PMS_P2;Temp;Humidity;BMP_temperature;BMP_pressure;BME280_temperature;BME280_humidity;BME280_pressure;Samples;Min_cycle;Max_cycle;Signal;HPM_P1;HPM_P2
2023/01/22 00:01:15;;;;;;;34.33;19.67;;;3.20;74.00;;;;;;5025404;28;20050;-49
2023/01/22 00:03:42;;;;;;;30.73;19.17;;;3.20;74.40;;;;;;5029665;28;20044;-51
2023/01/22 00:06:13;;;;;;;32.22;19.05;;;3.20;74.00;;;;;;5031316;28;20060;-49
2023/01/22 00:08:42;;;;;;;29.40;19.20;;;3.20;74.10;;;;;;5023837;28;20506;-47
2023/01/22 00:11:10;;;;;;;29.25;18.77;;;3.20;74.10;;;;;;5025606;28;20052;-49
2023/01/22 00:13:37;;;;;;;30.05;18.58;;;3.20;74.00;;;;;;5027127;28;20082;-49
2023/01/22 00:16:03;;;;;;;29.92;17.63;;;3.20;74.00;;;;;;5024455;28;20046;-48
2023/01/22 00:18:35;;;;;;;30.73;19.25;;;3.20;74.00;;;;;;5024939;28;20042;-48
2023/01/22 00:21:02;;;;;;;29.75;17.05;;;3.20;74.00;;;;;;5031886;28;20529;-51
2023/01/22 00:23:29;;;;;;;34.58;19.55;;;3.10;73.90;;;;;;5023411;28;20413;-49
2023/01/22 00:26:00;;;;;;;32.00;18.10;;;3.10;73.90;;;;;;5021663;28;20144;-50
2023/01/22 00:28:27;;;;;;;30.98;19.45;;;3.10;74.00;;;;;;5032084;28;20047;-50
2023/01/22 00:31:03;;;;;;;31.95;18.15;;;3.10;74.00;;;;;;5014106;28;20140;-48
2023/01/22 00:33:34;;;;;;;30.27;17.92;;;3.10;74.20;;;;;;5009269;28;20069;-49
2023/01/22 00:36:06;;;;;;;31.70;18.77;;;3.00;74.10;;;;;;5008448;28;20136;-47
2023/01/22 00:38:34;;;;;;;29.98;17.35;;;3.00;74.20;;;;;;5014526;28;20044;-47
2023/01/22 00:41:06;;;;;;;28.90;18.25;;;3.00;74.20;;;;;;5031498;28;20469;-49
2023/01/22 00:43:34;;;;;;;29.80;17.42;;;3.00;74.30;;;;;;5004499;28;20124;-49
2023/01/22 00:46:01;;;;;;;32.67;17.60;;;3.00;74.20;;;;;;5013092;28;20141;-52
2023/01/22 00:48:31;;;;;;;31.50;19.17;;;3.00;74.40;;;;;;5031518;28;20037;-48
2023/01/22 00:51:00;;;;;;;26.70;16.90;;;3.00;74.50;;;;;;5031241;28;20120;-49
2023/01/22 00:53:27;;;;;;;35.78;16.88;;;3.00;74.70;;;;;;5010833;28;20052;-53
2023/01/22 00:55:59;;;;;;;29.90;18.73;;;3.00;74.80;;;;;;5026254;28;20072;-49
2023/01/22 00:58:27;;;;;;;30.33;17.85;;;3.00;75.00;;;;;;5013372;28;20061;-50
2023/01/22 01:00:56;;;;;;;32.60;18.90;;;3.10;75.10;;;;;;5031058;28;20123;-52
2023/01/22 01:03:26;;;;;;;28.80;17.80;;;3.10;75.10;;;;;;5007595;28;20037;-49
2023/01/22 01:05:54;;;;;;;27.40;16.67;;;3.20;75.20;;;;;;5030739;28;20041;-49
2023/01/22 01:08:21;;;;;;;30.27;18.95;;;3.20;75.10;;;;;;5013452;28;20057;-48
2023/01/22 01:10:51;;;;;;;27.65;16.42;;;3.20;75.20;;;;;;5023589;28;20120;-49
2023/01/22 01:13:18;;;;;;;25.10;17.00;;;3.30;75.20;;;;;;5027360;28;20049;-49
2023/01/22 01:15:45;;;;;;;26.33;16.67;;;3.30;75.20;;;;;;5031876;28;20061;-51
2023/01/22 01:18:13;;;;;;;29.90;17.88;;;3.30;75.10;;;;;;5013851;28;20498;-51
2023/01/22 01:20:40;;;;;;;28.38;16.88;;;3.40;75.10;;;;;;5011982;28;20045;-53
2023/01/22 01:23:07;;;;;;;30.75;17.98;;;3.40;75.00;;;;;;5018933;28;20076;-49
2023/01/22 01:25:33;;;;;;;24.70;15.95;;;3.50;75.00;;;;;;5031702;28;20034;-51
2023/01/22 01:28:00;;;;;;;27.40;16.42;;;3.50;74.90;;;;;;5030918;28;20099;-54
2023/01/22 01:30:27;;;;;;;29.63;17.92;;;3.60;74.80;;;;;;5027539;28;20029;-50
2023/01/22 01:32:53;;;;;;;28.08;16.58;;;3.60;74.70;;;;;;5025866;28;20041;-51
2023/01/22 01:35:20;;;;;;;28.02;17.58;;;3.60;74.60;;;;;;5013658;28;20136;-48
2023/01/22 01:37:52;;;;;;;27.08;16.58;;;3.60;74.50;;;;;;5030531;28;20041;-49
2023/01/22 01:40:19;;;;;;;27.10;15.90;;;3.70;74.50;;;;;;5002221;28;20215;-52
2023/01/22 01:42:46;;;;;;;25.25;17.33;;;3.70;74.40;;;;;;5024153;28;20065;-49
2023/01/22 01:45:25;;;;;;;27.05;17.92;;;3.70;74.70;;;;;;5031200;28;20116;-51
2023/01/22 01:48:10;;;;;;;27.95;17.25;;;3.80;74.30;;;;;;5028914;28;20073;-49
2023/01/22 01:50:40;;;;;;;22.92;14.88;;;3.80;74.30;;;;;;5021477;28;20049;-52
2023/01/22 01:53:07;;;;;;;26.98;16.95;;;3.80;74.20;;;;;;5026733;28;20080;-49
2023/01/22 01:55:36;;;;;;;25.83;15.65;;;3.80;74.10;;;;;;5031044;28;20045;-50
2023/01/22 01:58:09;;;;;;;25.48;15.68;;;3.80;74.00;;;;;;5004931;28;20143;-48
2023/01/22 02:00:40;;;;;;;24.67;15.60;;;3.80;73.90;;;;;;5027453;28;20667;-51
2023/01/22 02:03:06;;;;;;;24.95;14.65;;;3.90;73.90;;;;;;5012780;28;20049;-49
2023/01/22 02:05:37;;;;;;;22.98;14.45;;;3.90;73.80;;;;;;5030695;28;20091;-52
2023/01/22 02:08:07;;;;;;;24.40;15.07;;;3.90;73.70;;;;;;5009233;28;20111;-49
2023/01/22 02:10:37;;;;;;;25.95;15.20;;;3.90;73.70;;;;;;5007555;28;20041;-54
2023/01/22 02:13:12;;;;;;;27.27;15.88;;;3.90;73.70;;;;;;5008503;28;20107;-49
2023/01/22 02:15:39;;;;;;;23.27;14.88;;;3.90;73.70;;;;;;5012483;28;20060;-50
2023/01/22 02:18:06;;;;;;;26.25;15.77;;;3.90;73.70;;;;;;5029560;28;20113;-51
2023/01/22 02:20:38;;;;;;;24.35;15.55;;;4.00;73.70;;;;;;5004979;28;20047;-53
2023/01/22 02:23:06;;;;;;;25.05;15.90;;;4.00;73.60;;;;;;5011080;28;20050;-51
2023/01/22 02:25:38;;;;;;;;;;;4.00;73.70;;;;;;5030978;28;20481;-49
2023/01/22 02:28:05;;;;;;;25.83;14.88;;;4.00;73.60;;;;;;5013717;28;19979;-52
2023/01/22 02:30:32;;;;;;;26.42;16.27;;;4.00;73.40;;;;;;5011658;28;20046;-49
2023/01/22 02:32:59;;;;;;;24.08;15.63;;;4.00;73.30;;;;;;5029621;28;20073;-51
2023/01/22 02:35:28;;;;;;;25.75;16.63;;;4.00;73.30;;;;;;5012563;28;20053;-51
2023/01/22 02:37:54;;;;;;;23.77;15.45;;;4.00;73.40;;;;;;5006999;28;20041;-51
2023/01/22 02:40:23;;;;;;;25.75;16.45;;;4.00;74.10;;;;;;5011314;28;20072;-48
2023/01/22 02:42:51;;;;;;;24.75;15.88;;;3.90;73.50;;;;;;5011707;28;20103;-51
2023/01/22 02:45:18;;;;;;;24.85;16.38;;;3.90;73.50;;;;;;5025382;28;20046;-49
2023/01/22 02:47:45;;;;;;;27.20;15.60;;;3.90;73.50;;;;;;5007324;28;20077;-51
2023/01/22 02:50:11;;;;;;;27.20;16.98;;;4.00;73.60;;;;;;5012511;28;20100;-52
2023/01/22 02:52:40;;;;;;;24.60;16.38;;;3.90;73.40;;;;;;5010996;28;20597;-49
2023/01/22 02:55:07;;;;;;;28.85;16.88;;;3.90;73.40;;;;;;5009958;28;20057;-48
2023/01/22 02:57:34;;;;;;;29.48;17.05;;;3.90;73.40;;;;;;5018441;28;20645;-50
2023/01/22 03:00:03;;;;;;;27.13;17.02;;;3.90;73.40;;;;;;5009331;28;20577;-49
2023/01/22 03:02:32;;;;;;;26.73;16.70;;;3.90;73.40;;;;;;5009183;28;20046;-47
2023/01/22 03:05:03;;;;;;;25.05;16.23;;;3.90;73.40;;;;;;5021795;28;20044;-49
2023/01/22 03:07:40;;;;;;;25.45;17.15;;;3.90;73.30;;;;;;5011708;28;20053;-47
2023/01/22 03:10:10;;;;;;;26.65;15.68;;;3.90;73.40;;;;;;5005438;28;20050;-48
2023/01/22 03:21:15;;;;;;;26.92;16.90;;;3.90;73.30;;;;;;5023617;28;20104;-49
2023/01/22 03:23:44;;;;;;;24.98;15.73;;;3.80;73.30;;;;;;4997386;28;20053;-50
2023/01/22 03:26:11;;;;;;;26.52;16.45;;;3.90;73.40;;;;;;5009686;28;20124;-48
2023/01/22 03:28:41;;;;;;;24.52;16.73;;;3.80;73.40;;;;;;5029846;28;20391;-48
2023/01/22 03:31:08;;;;;;;26.95;16.58;;;3.80;73.30;;;;;;5027699;28;20061;-51
2023/01/22 03:33:35;;;;;;;24.98;15.65;;;3.80;73.40;;;;;;5011168;28;20440;-52
2023/01/22 03:36:08;;;;;;;28.55;17.65;;;3.80;73.30;;;;;;5012161;28;20148;-52
2023/01/22 03:38:44;;;;;;;28.30;17.15;;;3.80;73.40;;;;;;4992489;28;20042;-50
2023/01/22 03:41:17;;;;;;;23.98;14.82;;;3.80;73.40;;;;;;5005831;28;20049;-48
2023/01/22 03:43:46;;;;;;;26.00;16.63;;;3.80;73.40;;;;;;5006612;28;20506;-49
2023/01/22 03:46:18;;;;;;;24.67;15.32;;;3.80;73.40;;;;;;5011660;28;20065;-52
2023/01/22 03:48:50;;;;;;;26.50;17.15;;;3.80;73.50;;;;;;5011464;28;20054;-51
2023/01/22 03:51:18;;;;;;;24.42;16.58;;;3.80;73.50;;;;;;5021826;28;20121;-48
2023/01/22 03:53:48;;;;;;;25.15;15.77;;;3.80;73.30;;;;;;5029009;28;20104;-51
2023/01/22 03:56:20;;;;;;;24.25;16.00;;;3.90;73.30;;;;;;5011413;28;20183;-49
2023/01/22 03:58:48;;;;;;;25.48;16.40;;;3.80;73.10;;;;;;5010753;28;20084;-49
2023/01/22 04:01:23;;;;;;;25.23;15.65;;;3.80;73.10;;;;;;5004818;28;20045;-49
2023/01/22 04:03:53;;;;;;;;;;;3.80;73.20;;;;;;5011818;28;20202;-49
2023/01/22 04:06:25;;;;;;;19.33;11.50;;;3.90;73.30;;;;;;5010068;28;20387;-49
2023/01/22 04:08:55;;;;;;;24.25;15.82;;;3.90;73.00;;;;;;5025804;28;20298;-52
2023/01/22 04:11:30;;;;;;;25.73;16.85;;;3.90;73.00;;;;;;5007009;28;20144;-49
2023/01/22 04:13:57;;;;;;;24.13;15.43;;;3.90;73.10;;;;;;5011511;28;20502;-52
2023/01/22 04:16:27;;;;;;;26.05;15.65;;;3.80;73.00;;;;;;5011057;28;20061;-51
2023/01/22 04:19:13;;;;;;;24.10;15.90;;;3.80;73.10;;;;;;5006389;28;20038;-52
2023/01/22 04:22:09;;;;;;;23.08;15.88;;;3.80;73.10;;;;;;4992355;28;20066;-50
2023/01/22 04:24:40;;;;;;;24.20;16.30;;;3.80;73.10;;;;;;5015147;28;20045;-53
2023/01/22 04:27:07;;;;;;;26.40;15.50;;;3.80;73.10;;;;;;5014934;28;20049;-53
2023/01/22 04:29:34;;;;;;;26.15;16.33;;;3.80;73.10;;;;;;5033058;28;20052;-49
2023/01/22 04:32:04;;;;;;;24.33;16.85;;;3.80;73.10;;;;;;5012681;28;20046;-49
2023/01/22 04:34:49;;;;;;;23.77;15.82;;;3.80;73.10;;;;;;5030782;28;20100;-51
2023/01/22 04:37:36;;;;;;;27.85;15.55;;;3.80;73.10;;;;;;5005479;28;20044;-53
2023/01/22 04:40:04;;;;;;;25.27;15.18;;;3.80;73.00;;;;;;5008471;28;20046;-51
2023/01/22 04:42:34;;;;;;;26.67;15.95;;;3.80;73.10;;;;;;5006817;28;20033;-51
2023/01/22 04:45:04;;;;;;;24.10;15.32;;;3.80;73.10;;;;;;5014607;28;20103;-51
2023/01/22 04:47:32;;;;;;;25.40;16.83;;;3.80;73.10;;;;;;5019735;28;20049;-51
2023/01/22 04:49:58;;;;;;;25.60;15.73;;;3.80;73.10;;;;;;5028729;28;20092;-51
2023/01/22 04:52:25;;;;;;;24.55;15.13;;;3.80;73.10;;;;;;5014239;28;20053;-48
2023/01/22 04:54:52;;;;;;;23.23;15.40;;;3.80;73.20;;;;;;5009349;28;20045;-52
2023/01/22 04:57:22;;;;;;;22.67;15.27;;;3.80;73.20;;;;;;5007950;28;20625;-51
2023/01/22 04:59:49;;;;;;;23.98;15.35;;;3.80;73.20;;;;;;5015383;28;20519;-49
2023/01/22 05:02:19;;;;;;;24.58;15.25;;;3.90;73.20;;;;;;5014199;28;20045;-51
2023/01/22 05:04:46;;;;;;;23.95;15.27;;;3.90;73.20;;;;;;5011051;28;20096;-53
2023/01/22 05:07:16;;;;;;;23.05;15.05;;;3.90;73.10;;;;;;5030907;28;20099;-49
2023/01/22 05:09:43;;;;;;;26.40;16.55;;;3.90;73.10;;;;;;5026805;28;20037;-49
2023/01/22 05:12:12;;;;;;;24.60;16.40;;;3.90;73.10;;;;;;5027777;28;20045;-49
2023/01/22 05:14:41;;;;;;;22.10;14.53;;;3.90;73.10;;;;;;5014320;28;20046;-50
2023/01/22 05:17:08;;;;;;;23.05;15.30;;;3.90;73.10;;;;;;5012527;28;20042;-51
2023/01/22 05:19:34;;;;;;;23.35;15.00;;;3.90;73.10;;;;;;5014313;28;20037;-51
2023/01/22 05:22:07;;;;;;;23.73;14.93;;;3.90;73.00;;;;;;5014284;28;20057;-52
2023/01/22 05:24:33;;;;;;;21.55;14.27;;;3.90;73.00;;;;;;5007792;28;20034;-51
2023/01/22 05:27:00;;;;;;;20.92;13.98;;;3.90;73.10;;;;;;5013297;28;20053;-50
2023/01/22 05:29:33;;;;;;;23.58;15.32;;;3.90;72.90;;;;;;5006035;28;20043;-51
2023/01/22 05:32:22;;;;;;;20.00;13.27;;;3.90;72.90;;;;;;5011005;28;20061;-52
2023/01/22 05:34:54;;;;;;;22.73;14.93;;;3.90;72.90;;;;;;5010337;28;20076;-51
2023/01/22 05:37:21;;;;;;;20.55;14.32;;;3.90;72.90;;;;;;5028455;28;20719;-50
2023/01/22 05:39:49;;;;;;;23.33;14.07;;;3.90;72.80;;;;;;5031787;28;20506;-50
2023/01/22 05:42:17;;;;;;;21.80;14.13;;;3.90;72.80;;;;;;5013242;28;20049;-49
2023/01/22 05:44:48;;;;;;;22.20;13.65;;;3.90;72.80;;;;;;5011806;28;20425;-52
2023/01/22 05:47:18;;;;;;;18.63;12.70;;;3.90;72.90;;;;;;5013389;28;20132;-51
2023/01/22 05:49:53;;;;;;;21.40;14.93;;;3.90;72.90;;;;;;5014126;28;20076;-51
2023/01/22 05:52:20;;;;;;;23.35;13.48;;;3.90;72.80;;;;;;5007553;28;20052;-50
2023/01/22 05:54:50;;;;;;;21.88;13.52;;;3.90;72.90;;;;;;5005455;28;20060;-50
2023/01/22 05:57:26;;;;;;;21.17;13.88;;;3.90;72.90;;;;;;5027953;28;20128;-51
2023/01/22 05:59:53;;;;;;;19.85;13.02;;;3.90;72.80;;;;;;5014118;28;20132;-53
2023/01/22 06:02:27;;;;;;;21.33;14.57;;;3.90;72.80;;;;;;5008985;28;20145;-51
2023/01/22 06:04:54;;;;;;;19.70;13.15;;;3.90;72.80;;;;;;5012354;28;20045;-50
2023/01/22 06:07:24;;;;;;;18.95;12.77;;;3.90;72.80;;;;;;5011795;28;20045;-49
2023/01/22 06:09:51;;;;;;;20.08;12.90;;;3.90;72.90;;;;;;5011510;28;20053;-51
2023/01/22 06:12:19;;;;;;;21.40;13.95;;;3.90;72.90;;;;;;5009415;28;20046;-49
2023/01/22 06:14:49;;;;;;;19.65;13.20;;;3.90;72.80;;;;;;5012875;28;20505;-52
2023/01/22 06:17:16;;;;;;;20.90;14.38;;;4.00;72.90;;;;;;4996132;28;20505;-51
2023/01/22 06:19:53;;;;;;;20.30;12.90;;;3.90;72.80;;;;;;5001046;28;20046;-50
2023/01/22 06:22:20;;;;;;;20.58;13.80;;;4.00;72.80;;;;;;5004617;28;20130;-49
2023/01/22 06:24:56;;;;;;;21.80;13.75;;;3.90;72.70;;;;;;5012903;28;20057;-49
2023/01/22 06:27:41;;;;;;;21.90;14.07;;;3.90;72.70;;;;;;5011743;28;20053;-50
2023/01/22 06:30:08;;;;;;;21.52;14.38;;;3.90;72.70;;;;;;5005274;28;20152;-53
2023/01/22 06:32:35;;;;;;;21.00;14.00;;;4.00;72.80;;;;;;5008219;28;20091;-50
2023/01/22 06:35:02;;;;;;;21.23;14.07;;;3.90;72.70;;;;;;5012909;28;20073;-49
2023/01/22 06:37:29;;;;;;;19.13;12.80;;;3.90;72.80;;;;;;5028630;28;20049;-52
2023/01/22 06:39:56;;;;;;;21.17;13.23;;;3.90;72.90;;;;;;5009509;28;20068;-51
2023/01/22 06:42:36;;;;;;;22.35;13.93;;;3.90;72.90;;;;;;5011185;28;20114;-51
2023/01/22 06:45:03;;;;;;;20.33;14.00;;;3.90;72.90;;;;;;5012631;28;20536;-49
2023/01/22 06:47:31;;;;;;;16.58;12.43;;;3.90;72.80;;;;;;5012218;28;20053;-51
2023/01/22 06:50:01;;;;;;;20.10;12.93;;;3.90;72.90;;;;;;5004486;28;20050;-52
2023/01/22 06:52:28;;;;;;;22.05;14.23;;;3.90;72.80;;;;;;5010449;28;20157;-49
2023/01/22 06:54:59;;;;;;;18.95;13.10;;;4.00;72.80;;;;;;5012918;28;20041;-53
2023/01/22 06:57:28;;;;;;;20.35;13.48;;;4.00;72.80;;;;;;5012080;28;20045;-53
2023/01/22 06:59:55;;;;;;;19.58;12.40;;;3.90;72.60;;;;;;5004498;28;20137;-49
2023/01/22 07:02:24;;;;;;;20.92;12.35;;;3.90;73.20;;;;;;5028886;28;20088;-50
2023/01/22 07:04:54;;;;;;;18.27;12.27;;;4.00;72.80;;;;;;5028561;28;20049;-50
2023/01/22 07:07:21;;;;;;;18.55;12.18;;;4.00;72.80;;;;;;5025250;28;20132;-51
2023/01/22 07:09:47;;;;;;;18.73;12.60;;;4.00;72.70;;;;;;5019100;28;20091;-51
2023/01/22 07:12:14;;;;;;;18.98;13.50;;;4.00;72.70;;;;;;5028860;28;20049;-50
2023/01/22 07:14:43;;;;;;;18.33;12.55;;;4.00;72.60;;;;;;5028489;28;20057;-52
2023/01/22 07:17:10;;;;;;;17.15;12.30;;;4.00;72.60;;;;;;5022597;28;20069;-52
2023/01/22 07:19:43;;;;;;;16.88;12.00;;;4.00;72.50;;;;;;5023529;28;20057;-55
2023/01/22 07:22:11;;;;;;;18.08;11.93;;;4.00;72.60;;;;;;5027271;28;20048;-53
2023/01/22 07:24:41;;;;;;;19.02;11.93;;;4.00;72.60;;;;;;5022764;28;20120;-54
2023/01/22 07:27:08;;;;;;;15.50;11.63;;;4.00;72.50;;;;;;5013332;28;20414;-52
2023/01/22 07:29:34;;;;;;;18.65;11.45;;;4.00;72.40;;;;;;5028573;28;20139;-51
2023/01/22 07:32:01;;;;;;;18.98;12.60;;;4.00;72.50;;;;;;5028690;28;20064;-49
2023/01/22 07:34:30;;;;;;;16.60;10.75;;;4.00;72.50;;;;;;5024203;28;20044;-54
2023/01/22 07:37:02;;;;;;;16.08;12.50;;;4.00;72.50;;;;;;5021726;28;20549;-53
2023/01/22 07:39:33;;;;;;;21.02;13.27;;;4.00;72.60;;;;;;5028614;28;20059;-51
2023/01/22 07:42:00;;;;;;;16.63;12.05;;;4.00;72.50;;;;;;5027640;28;20849;-51
2023/01/22 07:44:30;;;;;;;17.63;11.93;;;4.00;72.50;;;;;;5005116;28;20030;-52
2023/01/22 07:46:56;;;;;;;18.75;12.43;;;4.00;72.50;;;;;;5014485;28;20049;-49
2023/01/22 07:49:23;;;;;;;18.92;12.70;;;4.00;72.50;;;;;;5014016;28;20045;-53
2023/01/22 07:51:50;;;;;;;18.40;11.70;;;4.00;72.50;;;;;;5021287;28;20452;-50
2023/01/22 07:54:18;;;;;;;17.65;12.25;;;4.00;72.40;;;;;;5026515;28;20049;-51
2023/01/22 07:56:45;;;;;;;19.38;13.23;;;4.00;72.60;;;;;;5022585;28;20099;-50
2023/01/22 07:59:12;;;;;;;16.65;11.88;;;4.00;72.50;;;;;;5013436;28;20057;-52
2023/01/22 08:01:39;;;;;;;19.23;12.85;;;4.00;72.60;;;;;;5012752;28;20048;-51
2023/01/22 08:04:06;;;;;;;18.38;12.77;;;4.00;72.60;;;;;;5028669;28;20048;-53
2023/01/22 08:06:34;;;;;;;18.75;12.25;;;4.00;72.50;;;;;;5027830;28;20042;-51
2023/01/22 08:09:01;;;;;;;17.40;12.25;;;4.00;72.50;;;;;;5028758;28;20049;-49
2023/01/22 08:11:28;;;;;;;18.17;13.55;;;4.00;72.50;;;;;;5029611;28;20129;-52
2023/01/22 08:13:54;;;;;;;19.65;13.75;;;4.00;72.50;;;;;;5029668;28;20561;-51
2023/01/22 08:16:21;;;;;;;17.58;13.40;;;4.00;72.60;;;;;;5031890;28;20041;-50
2023/01/22 08:18:48;;;;;;;18.38;13.20;;;4.10;72.60;;;;;;5028192;28;20240;-54
2023/01/22 08:21:16;;;;;;;18.92;14.10;;;4.10;72.50;;;;;;5031928;28;20464;-51
2023/01/22 08:23:43;;;;;;;20.23;13.95;;;4.10;72.40;;;;;;5026794;28;20049;-53
2023/01/22 08:26:14;;;;;;;16.35;12.38;;;4.10;72.40;;;;;;5033088;28;20041;-53
2023/01/22 08:28:41;;;;;;;18.08;12.68;;;4.10;72.40;;;;;;5033098;28;20068;-51
2023/01/22 08:31:08;;;;;;;22.08;13.43;;;4.10;72.40;;;;;;5033980;28;20120;-50
2023/01/22 08:33:48;;;;;;;19.05;13.38;;;4.10;72.40;;;;;;5027592;28;20041;-51
2023/01/22 08:36:15;;;;;;;18.92;13.43;;;4.10;72.50;;;;;;5031288;28;20422;-50
2023/01/22 08:38:41;;;;;;;17.00;12.18;;;4.10;72.50;;;;;;5000507;28;20061;-54
2023/01/22 08:41:08;;;;;;;16.98;12.38;;;4.10;72.60;;;;;;5030649;28;20061;-50
2023/01/22 08:43:35;;;;;;;17.92;11.90;;;4.20;72.50;;;;;;5022365;28;20038;-52
2023/01/22 08:46:01;;;;;;;17.50;12.48;;;4.20;72.40;;;;;;5027882;28;20042;-53
2023/01/22 08:48:28;;;;;;;16.05;11.75;;;4.20;72.40;;;;;;5010723;28;20057;-50
2023/01/22 08:50:58;;;;;;;18.08;12.48;;;4.20;72.40;;;;;;5023970;28;20041;-52
2023/01/22 08:53:25;;;;;;;18.23;11.38;;;4.20;72.40;;;;;;5028347;28;20120;-50
2023/01/22 08:55:51;;;;;;;14.23;10.40;;;4.30;72.30;;;;;;5031776;28;20051;-50
2023/01/22 08:58:20;;;;;;;14.10;11.20;;;4.30;72.20;;;;;;5031615;28;20437;-55
2023/01/22 09:00:47;;;;;;;14.75;11.25;;;4.30;72.20;;;;;;5023289;28;20033;-50
2023/01/22 09:03:14;;;;;;;16.08;10.95;;;4.40;72.30;;;;;;5028063;28;20504;-55
2023/01/22 09:05:41;;;;;;;14.98;10.02;;;4.30;72.20;;;;;;5030894;28;20095;-50
2023/01/22 09:08:08;;;;;;;15.43;10.80;;;4.40;72.30;;;;;;5027903;28;20050;-50
2023/01/22 09:10:34;;;;;;;14.57;10.95;;;4.40;72.40;;;;;;5030400;28;20514;-49
2023/01/22 09:13:01;;;;;;;13.65;10.45;;;4.40;72.30;;;;;;5031259;28;20129;-52
2023/01/22 09:15:28;;;;;;;14.57;10.40;;;4.40;72.20;;;;;;5032148;28;20043;-53
2023/01/22 09:17:55;;;;;;;15.05;11.50;;;4.40;72.10;;;;;;5026127;28;20043;-52
2023/01/22 09:20:22;;;;;;;13.45;10.77;;;4.50;72.10;;;;;;5023083;28;20046;-48
2023/01/22 09:22:48;;;;;;;17.52;11.52;;;4.50;72.10;;;;;;5023238;28;20034;-50
2023/01/22 09:25:15;;;;;;;19.00;11.68;;;4.50;72.00;;;;;;5025212;28;20048;-49
2023/01/22 09:27:42;;;;;;;15.70;11.20;;;4.50;72.00;;;;;;5030196;28;20043;-50
2023/01/22 09:30:09;;;;;;;13.90;10.35;;;4.50;71.90;;;;;;5031486;28;20449;-50
2023/01/22 09:32:36;;;;;;;17.08;12.02;;;4.50;71.80;;;;;;5029123;28;20509;-52
2023/01/22 09:35:03;;;;;;;15.23;11.75;;;4.50;71.80;;;;;;5027700;28;20041;-50
2023/01/22 09:37:30;;;;;;;16.00;11.65;;;4.50;71.70;;;;;;5029750;28;20045;-48
2023/01/22 09:39:57;;;;;;;16.25;11.68;;;4.50;71.70;;;;;;5024510;28;20072;-51
2023/01/22 09:42:30;;;;;;;14.88;10.32;;;4.50;71.60;;;;;;5030338;28;20052;-49
2023/01/22 09:45:09;;;;;;;15.45;11.23;;;4.50;71.70;;;;;;5031012;28;20065;-51
2023/01/22 09:47:42;;;;;;;18.13;10.98;;;4.50;72.00;;;;;;5028205;28;20042;-52
2023/01/22 09:50:19;;;;;;;16.80;11.52;;;4.50;72.00;;;;;;5029009;28;20520;-53
2023/01/22 09:52:48;;;;;;;14.10;10.75;;;4.50;72.10;;;;;;5030428;28;20041;-53
2023/01/22 09:55:19;;;;;;;14.45;11.05;;;4.50;72.20;;;;;;5029207;28;20037;-49
2023/01/22 09:57:48;;;;;;;12.23;9.82;;;4.60;72.30;;;;;;5025093;28;20049;-50
2023/01/22 10:00:28;;;;;;;9.38;7.95;;;4.60;72.30;;;;;;5027099;28;20045;-52
2023/01/22 10:03:02;;;;;;;12.68;10.20;;;4.60;72.30;;;;;;5022587;28;20044;-48
2023/01/22 10:05:29;;;;;;;14.43;10.27;;;4.70;72.20;;;;;;5030054;28;20036;-50
2023/01/22 10:08:16;;;;;;;15.30;11.20;;;4.70;72.20;;;;;;5024878;28;20041;-48
2023/01/22 10:10:43;;;;;;;11.88;9.23;;;4.70;72.00;;;;;;5023659;28;20046;-49
2023/01/22 10:13:20;;;;;;;11.23;9.38;;;4.80;72.20;;;;;;5031184;28;20382;-52
2023/01/22 10:15:49;;;;;;;11.35;9.45;;;4.80;72.00;;;;;;5024739;28;20045;-48
2023/01/22 10:18:43;;;;;;;15.50;10.30;;;4.80;72.00;;;;;;5024545;28;20041;-47
2023/01/22 10:21:22;;;;;;;13.15;10.00;;;4.90;72.00;;;;;;5025499;28;20045;-50
2023/01/22 10:23:50;;;;;;;13.00;10.15;;;4.90;71.90;;;;;;5028102;28;20038;-49
2023/01/22 10:26:27;;;;;;;11.65;9.50;;;4.90;71.80;;;;;;5021028;28;20044;-50
2023/01/22 10:28:57;;;;;;;14.38;10.70;;;4.90;71.80;;;;;;5022032;28;20076;-49
2023/01/22 10:31:28;;;;;;;13.23;10.23;;;4.90;71.80;;;;;;5030677;28;20048;-48
2023/01/22 10:33:58;;;;;;;14.63;10.80;;;4.90;71.80;;;;;;5019361;28;20041;-49
2023/01/22 10:36:26;;;;;;;12.98;10.15;;;4.90;71.60;;;;;;5022077;28;20535;-50
2023/01/22 10:39:12;;;;;;;11.85;10.52;;;4.90;71.80;;;;;;5021842;28;20069;-49
2023/01/22 10:41:39;;;;;;;16.95;10.77;;;5.00;71.80;;;;;;5028177;28;20405;-49
2023/01/22 10:44:15;;;;;;;14.07;9.43;;;5.00;71.80;;;;;;5027331;28;20087;-49
2023/01/22 10:46:42;;;;;;;12.40;10.30;;;5.00;71.60;;;;;;5029967;28;20522;-49
2023/01/22 10:49:17;;;;;;;12.77;9.52;;;5.00;71.60;;;;;;5029381;28;20049;-48
2023/01/22 10:51:51;;;;;;;11.57;9.27;;;5.00;71.40;;;;;;5003855;28;20068;-49
2023/01/22 10:54:25;;;;;;;12.60;9.70;;;4.90;71.40;;;;;;5023416;28;20132;-49
2023/01/22 10:57:01;;;;;;;14.80;10.13;;;4.90;71.50;;;;;;5029878;28;20037;-53
2023/01/22 10:59:30;;;;;;;11.90;9.77;;;4.90;71.60;;;;;;5024179;28;20045;-48
2023/01/22 11:01:59;;;;;;;13.07;10.05;;;4.90;72.40;;;;;;5028995;28;20037;-52
2023/01/22 11:04:29;;;;;;;14.73;10.68;;;4.90;71.80;;;;;;5027136;28;20477;-49
2023/01/22 11:07:04;;;;;;;11.50;10.00;;;4.90;71.80;;;;;;5024870;28;20065;-51
2023/01/22 11:09:58;;;;;;;12.82;10.07;;;4.90;71.80;;;;;;5029167;28;20041;-51
2023/01/22 11:12:33;;;;;;;12.30;9.88;;;5.00;71.80;;;;;;5014090;28;20050;-48
2023/01/22 11:15:03;;;;;;;12.20;9.93;;;5.00;71.80;;;;;;5025321;28;20557;-50
2023/01/22 11:17:37;;;;;;;14.70;10.50;;;5.00;71.80;;;;;;5028445;28;20045;-52
2023/01/22 11:20:16;;;;;;;15.05;10.95;;;5.00;71.80;;;;;;5009032;28;20054;-49
2023/01/22 11:22:56;;;;;;;13.75;10.57;;;5.00;71.90;;;;;;5029390;28;20062;-51
2023/01/22 11:25:36;;;;;;;13.70;10.57;;;5.00;72.00;;;;;;5029348;28;20049;-52
2023/01/22 11:28:29;;;;;;;13.88;10.73;;;5.00;71.90;;;;;;5022829;28;20045;-52
2023/01/22 11:31:07;;;;;;;12.70;10.13;;;5.10;71.90;;;;;;5010127;28;20052;-54
2023/01/22 11:34:09;;;;;;;13.65;10.02;;;5.10;72.10;;;;;;5028027;28;20045;-49
2023/01/22 11:36:58;;;;;;;13.50;10.18;;;5.10;71.90;;;;;;5028151;28;20026;-49
2023/01/22 11:39:34;;;;;;;11.75;9.73;;;5.10;71.80;;;;;;5026886;28;20060;-50
2023/01/22 11:42:19;;;;;;;12.23;10.55;;;5.10;71.60;;;;;;5024854;28;20108;-48
2023/01/22 11:44:46;;;;;;;12.07;10.30;;;5.10;71.80;;;;;;5027694;28;20038;-49
2023/01/22 11:47:33;;;;;;;13.18;10.23;;;5.10;71.80;;;;;;5026409;28;20128;-53
2023/01/22 11:50:16;;;;;;;11.90;9.20;;;5.10;71.60;;;;;;5023822;28;20116;-51
2023/01/22 11:52:58;;;;;;;12.35;10.10;;;5.10;71.60;;;;;;5026877;28;20069;-49
2023/01/22 11:55:47;;;;;;;12.57;10.57;;;5.10;71.60;;;;;;5028009;28;20112;-51
2023/01/22 11:58:32;;;;;;;14.23;10.35;;;5.10;71.40;;;;;;5026729;28;20588;-48
2023/01/22 12:01:22;;;;;;;13.02;10.55;;;5.10;71.60;;;;;;5025901;28;20042;-49
2023/01/22 12:04:17;;;;;;;12.73;10.05;;;5.00;71.50;;;;;;5024666;28;20045;-49
2023/01/22 12:07:21;;;;;;;11.85;9.57;;;5.00;71.60;;;;;;5024870;28;20535;-49
2023/01/22 12:09:58;;;;;;;13.63;10.35;;;5.00;71.70;;;;;;5022605;28;20076;-49
2023/01/22 12:12:25;;;;;;;14.23;10.95;;;5.00;71.70;;;;;;5029320;28;20482;-49
2023/01/22 12:15:06;;;;;;;12.95;10.85;;;5.00;71.90;;;;;;5010412;28;21142;-48
2023/01/22 12:17:45;;;;;;;14.48;11.10;;;5.00;72.00;;;;;;5025970;28;20042;-48
2023/01/22 12:20:40;;;;;;;15.15;10.77;;;5.00;72.00;;;;;;5026882;28;20121;-48
2023/01/22 12:23:14;;;;;;;14.20;10.05;;;5.00;71.90;;;;;;5028410;28;20088;-48
2023/01/22 12:25:48;;;;;;;13.52;10.27;;;5.00;72.00;;;;;;5022884;28;20500;-49
2023/01/22 12:28:25;;;;;;;13.95;10.52;;;5.00;72.00;;;;;;5018021;28;20538;-51
2023/01/22 12:31:06;;;;;;;12.45;9.98;;;5.00;71.90;;;;;;5029522;28;20493;-51
2023/01/22 12:33:38;;;;;;;12.07;9.75;;;5.00;72.00;;;;;;5027515;28;20057;-51
2023/01/22 12:36:08;;;;;;;12.80;9.75;;;5.00;72.10;;;;;;5018195;28;20080;-50
2023/01/22 12:38:54;;;;;;;15.25;10.23;;;5.10;72.20;;;;;;5026863;28;20495;-49
2023/01/22 12:41:41;;;;;;;15.02;9.85;;;5.10;72.10;;;;;;5028569;28;20110;-52
2023/01/22 12:44:10;;;;;;;13.57;10.25;;;5.10;72.10;;;;;;5024745;28;20405;-50
2023/01/22 12:47:18;;;;;;;14.00;10.20;;;5.10;72.20;;;;;;5028436;28;20041;-50
2023/01/22 12:49:48;;;;;;;12.35;9.38;;;5.20;72.20;;;;;;4988284;28;20050;-49
2023/01/22 12:52:36;;;;;;;14.10;9.98;;;5.20;72.30;;;;;;5024305;28;20080;-49
2023/01/22 12:55:28;;;;;;;16.10;11.00;;;5.20;71.90;;;;;;5028760;28;20124;-48
2023/01/22 12:57:55;;;;;;;13.10;10.60;;;5.30;71.90;;;;;;5025320;28;20049;-49
2023/01/22 13:00:29;;;;;;;14.77;10.43;;;5.30;72.00;;;;;;5005925;28;20048;-49
2023/01/22 13:02:59;;;;;;;14.77;10.80;;;5.30;72.00;;;;;;5027051;28;20317;-48
2023/01/22 13:05:29;;;;;;;12.55;9.82;;;5.30;72.10;;;;;;5022661;28;20037;-49
2023/01/22 13:08:24;;;;;;;14.02;10.25;;;5.40;72.00;;;;;;5027045;28;20038;-50